sensor_id;sensor_type;location;lat;lon;timestamp;P1;durP1;ratioP1;P2;durP2;ratioP2
7316;SDS011;3699;51.462;6.696;2024-03-08T00:01:36;32.43;;;17.43;;
7316;SDS011;3699;51.462;6.696;2024-03-08T00:04:02;33.17;;;19.03;;
7316;SDS011;3699;51.462;6.696;2024-03-08T00:06:31;29.07;;;19.57;;
7316;SDS011;3699;51.462;6.696;2024-03-08T00:08:59;31.57;;;17.20;;
7316;SDS011;3699;51.462;6.696;2024-03-08T00:11:26;32.03;;;18.50;;
7316;SDS011;3699;51.462;6.696;2024-03-08T00:13:52;29.00;;;17.43;;
7316;SDS011;3699;51.462;6.696;2024-03-08T00:16:19;30.50;;;17.77;;
7316;SDS011;3699;51.462;6.696;2024-03-08T00:18:48;27.10;;;17.50;;
7316;SDS011;3699;51.462;6.696;2024-03-08T00:21:15;26.83;;;17.53;;
7316;SDS011;3699;51.462;6.696;2024-03-08T00:23:41;33.13;;;18.60;;
7316;SDS011;3699;51.462;6.696;2024-03-08T00:26:09;31.63;;;18.43;;
7316;SDS011;3699;51.462;6.696;2024-03-08T00:28:36;32.50;;;19.17;;
7316;SDS011;3699;51.462;6.696;2024-03-08T00:31:03;38.20;;;19.53;;
7316;SDS011;3699;51.462;6.696;2024-03-08T00:33:31;34.27;;;17.70;;
7316;SDS011;3699;51.462;6.696;2024-03-08T00:35:57;32.70;;;18.67;;
7316;SDS011;3699;51.462;6.696;2024-03-08T00:38:24;32.10;;;18.03;;
7316;SDS011;3699;51.462;6.696;2024-03-08T00:40:51;34.30;;;18.13;;
7316;SDS011;3699;51.462;6.696;2024-03-08T00:43:19;32.40;;;19.10;;
7316;SDS011;3699;51.462;6.696;2024-03-08T00:45:45;30.43;;;18.30;;
7316;SDS011;3699;51.462;6.696;2024-03-08T00:48:12;30.43;;;18.03;;
7316;SDS011;3699;51.462;6.696;2024-03-08T00:50:39;32.90;;;18.90;;
7316;SDS011;3699;51.462;6.696;2024-03-08T00:53:06;28.77;;;17.80;;
7316;SDS011;3699;51.462;6.696;2024-03-08T00:55:33;31.80;;;19.10;;
7316;SDS011;3699;51.462;6.696;2024-03-08T00:58:00;32.80;;;18.10;;
7316;SDS011;3699;51.462;6.696;2024-03-08T01:00:28;32.90;;;19.10;;
7316;SDS011;3699;51.462;6.696;2024-03-08T01:02:55;35.03;;;19.43;;
7316;SDS011;3699;51.462;6.696;2024-03-08T01:05:21;34.27;;;19.07;;
7316;SDS011;3699;51.462;6.696;2024-03-08T01:07:49;31.97;;;18.10;;
7316;SDS011;3699;51.462;6.696;2024-03-08T01:10:16;34.23;;;18.67;;
7316;SDS011;3699;51.462;6.696;2024-03-08T01:12:43;31.37;;;18.77;;
7316;SDS011;3699;51.462;6.696;2024-03-08T01:15:10;33.30;;;20.27;;
7316;SDS011;3699;51.462;6.696;2024-03-08T01:17:38;29.03;;;18.23;;
7316;SDS011;3699;51.462;6.696;2024-03-08T01:20:05;30.47;;;18.83;;
7316;SDS011;3699;51.462;6.696;2024-03-08T01:22:35;32.80;;;20.30;;
7316;SDS011;3699;51.462;6.696;2024-03-08T01:25:02;34.73;;;19.20;;
7316;SDS011;3699;51.462;6.696;2024-03-08T01:27:30;33.93;;;20.60;;
7316;SDS011;3699;51.462;6.696;2024-03-08T01:29:57;35.50;;;19.57;;
7316;SDS011;3699;51.462;6.696;2024-03-08T01:32:24;32.37;;;19.33;;
7316;SDS011;3699;51.462;6.696;2024-03-08T01:34:52;32.60;;;19.20;;
7316;SDS011;3699;51.462;6.696;2024-03-08T01:37:19;32.70;;;18.83;;
7316;SDS011;3699;51.462;6.696;2024-03-08T01:39:46;32.57;;;19.10;;
7316;SDS011;3699;51.462;6.696;2024-03-08T01:42:12;35.43;;;18.63;;
7316;SDS011;3699;51.462;6.696;2024-03-08T01:44:42;31.63;;;18.23;;
7316;SDS011;3699;51.462;6.696;2024-03-08T01:47:09;36.20;;;19.33;;
7316;SDS011;3699;51.462;6.696;2024-03-08T01:49:37;32.07;;;19.83;;
7316;SDS011;3699;51.462;6.696;2024-03-08T01:52:05;29.97;;;18.80;;
7316;SDS011;3699;51.462;6.696;2024-03-08T01:54:32;36.57;;;19.33;;
7316;SDS011;3699;51.462;6.696;2024-03-08T01:56:59;39.30;;;20.03;;
7316;SDS011;3699;51.462;6.696;2024-03-08T01:59:26;32.23;;;18.23;;
7316;SDS011;3699;51.462;6.696;2024-03-08T02:01:53;33.87;;;18.60;;
7316;SDS011;3699;51.462;6.696;2024-03-08T02:04:22;32.70;;;19.43;;
7316;SDS011;3699;51.462;6.696;2024-03-08T02:06:49;33.50;;;20.00;;
7316;SDS011;3699;51.462;6.696;2024-03-08T02:09:18;36.07;;;20.30;;
7316;SDS011;3699;51.462;6.696;2024-03-08T02:11:45;34.07;;;20.50;;
7316;SDS011;3699;51.462;6.696;2024-03-08T02:14:12;32.40;;;20.07;;
7316;SDS011;3699;51.462;6.696;2024-03-08T02:16:39;32.87;;;19.80;;
7316;SDS011;3699;51.462;6.696;2024-03-08T02:19:06;35.27;;;20.30;;
7316;SDS011;3699;51.462;6.696;2024-03-08T02:21:36;33.53;;;19.73;;
7316;SDS011;3699;51.462;6.696;2024-03-08T02:24:03;34.30;;;19.83;;
7316;SDS011;3699;51.462;6.696;2024-03-08T02:26:30;34.33;;;20.17;;
7316;SDS011;3699;51.462;6.696;2024-03-08T02:28:57;35.47;;;20.77;;
7316;SDS011;3699;51.462;6.696;2024-03-08T02:31:23;33.07;;;19.93;;
7316;SDS011;3699;51.462;6.696;2024-03-08T02:33:50;35.57;;;18.93;;
7316;SDS011;3699;51.462;6.696;2024-03-08T02:36:17;38.57;;;21.80;;
7316;SDS011;3699;51.462;6.696;2024-03-08T02:38:45;41.00;;;22.43;;
7316;SDS011;3699;51.462;6.696;2024-03-08T02:41:12;32.97;;;19.73;;
7316;SDS011;3699;51.462;6.696;2024-03-08T02:43:38;42.13;;;21.03;;
7316;SDS011;3699;51.462;6.696;2024-03-08T02:46:05;38.00;;;20.87;;
7316;SDS011;3699;51.462;6.696;2024-03-08T02:48:32;36.40;;;20.77;;
7316;SDS011;3699;51.462;6.696;2024-03-08T02:50:58;33.50;;;20.90;;
7316;SDS011;3699;51.462;6.696;2024-03-08T02:53:27;33.57;;;19.70;;
7316;SDS011;3699;51.462;6.696;2024-03-08T02:55:55;41.03;;;20.10;;
7316;SDS011;3699;51.462;6.696;2024-03-08T02:58:21;34.20;;;20.33;;
7316;SDS011;3699;51.462;6.696;2024-03-08T03:00:48;36.50;;;20.07;;
7316;SDS011;3699;51.462;6.696;2024-03-08T03:03:15;37.33;;;21.43;;
7316;SDS011;3699;51.462;6.696;2024-03-08T03:05:42;36.60;;;21.17;;
7316;SDS011;3699;51.462;6.696;2024-03-08T03:08:09;37.70;;;21.30;;
7316;SDS011;3699;51.462;6.696;2024-03-08T03:10:37;36.23;;;20.93;;
7316;SDS011;3699;51.462;6.696;2024-03-08T03:13:05;40.93;;;22.87;;
7316;SDS011;3699;51.462;6.696;2024-03-08T03:15:31;42.40;;;23.33;;
7316;SDS011;3699;51.462;6.696;2024-03-08T03:17:59;38.93;;;20.83;;
7316;SDS011;3699;51.462;6.696;2024-03-08T03:20:26;41.37;;;23.33;;
7316;SDS011;3699;51.462;6.696;2024-03-08T03:22:57;39.03;;;21.20;;
7316;SDS011;3699;51.462;6.696;2024-03-08T03:25:26;37.10;;;21.57;;
7316;SDS011;3699;51.462;6.696;2024-03-08T03:27:58;40.10;;;21.90;;
7316;SDS011;3699;51.462;6.696;2024-03-08T03:30:27;37.47;;;22.13;;
7316;SDS011;3699;51.462;6.696;2024-03-08T03:32:58;35.40;;;20.60;;
7316;SDS011;3699;51.462;6.696;2024-03-08T03:35:25;42.27;;;22.33;;
7316;SDS011;3699;51.462;6.696;2024-03-08T03:37:52;39.10;;;21.27;;
7316;SDS011;3699;51.462;6.696;2024-03-08T03:40:27;44.07;;;22.00;;
7316;SDS011;3699;51.462;6.696;2024-03-08T03:42:54;38.37;;;21.43;;
7316;SDS011;3699;51.462;6.696;2024-03-08T03:45:21;42.30;;;21.97;;
7316;SDS011;3699;51.462;6.696;2024-03-08T03:47:49;37.77;;;21.27;;
7316;SDS011;3699;51.462;6.696;2024-03-08T03:50:16;42.10;;;21.73;;
7316;SDS011;3699;51.462;6.696;2024-03-08T03:52:44;41.17;;;22.63;;
7316;SDS011;3699;51.462;6.696;2024-03-08T03:55:11;33.47;;;20.93;;
7316;SDS011;3699;51.462;6.696;2024-03-08T03:57:38;41.27;;;22.43;;
7316;SDS011;3699;51.462;6.696;2024-03-08T04:00:06;40.57;;;21.60;;
7316;SDS011;3699;51.462;6.696;2024-03-08T04:02:35;39.63;;;22.63;;
7316;SDS011;3699;51.462;6.696;2024-03-08T04:05:05;36.80;;;20.63;;
7316;SDS011;3699;51.462;6.696;2024-03-08T04:07:33;42.10;;;22.40;;
7316;SDS011;3699;51.462;6.696;2024-03-08T04:10:00;36.40;;;20.97;;
7316;SDS011;3699;51.462;6.696;2024-03-08T04:12:26;41.53;;;21.93;;
7316;SDS011;3699;51.462;6.696;2024-03-08T04:14:55;40.00;;;21.80;;
7316;SDS011;3699;51.462;6.696;2024-03-08T04:17:22;38.37;;;22.40;;
7316;SDS011;3699;51.462;6.696;2024-03-08T04:19:50;41.47;;;23.10;;
7316;SDS011;3699;51.462;6.696;2024-03-08T04:22:18;37.60;;;21.63;;
7316;SDS011;3699;51.462;6.696;2024-03-08T04:24:45;39.73;;;22.13;;
7316;SDS011;3699;51.462;6.696;2024-03-08T04:27:12;39.23;;;21.33;;
7316;SDS011;3699;51.462;6.696;2024-03-08T04:29:39;39.97;;;21.67;;
7316;SDS011;3699;51.462;6.696;2024-03-08T04:32:06;38.50;;;21.23;;
7316;SDS011;3699;51.462;6.696;2024-03-08T04:34:33;42.60;;;21.67;;
7316;SDS011;3699;51.462;6.696;2024-03-08T04:37:00;44.20;;;21.10;;
7316;SDS011;3699;51.462;6.696;2024-03-08T04:39:31;35.67;;;21.13;;
7316;SDS011;3699;51.462;6.696;2024-03-08T04:41:59;42.03;;;22.07;;
7316;SDS011;3699;51.462;6.696;2024-03-08T04:44:29;43.80;;;21.80;;
7316;SDS011;3699;51.462;6.696;2024-03-08T04:46:56;41.77;;;21.77;;
7316;SDS011;3699;51.462;6.696;2024-03-08T04:49:23;45.80;;;22.80;;
7316;SDS011;3699;51.462;6.696;2024-03-08T04:51:50;42.03;;;22.20;;
7316;SDS011;3699;51.462;6.696;2024-03-08T04:54:16;40.67;;;22.77;;
7316;SDS011;3699;51.462;6.696;2024-03-08T04:56:45;41.13;;;22.60;;
7316;SDS011;3699;51.462;6.696;2024-03-08T04:59:12;42.77;;;23.43;;
7316;SDS011;3699;51.462;6.696;2024-03-08T05:01:39;37.77;;;22.60;;
7316;SDS011;3699;51.462;6.696;2024-03-08T05:04:05;38.43;;;21.03;;
7316;SDS011;3699;51.462;6.696;2024-03-08T05:06:32;40.77;;;22.67;;
7316;SDS011;3699;51.462;6.696;2024-03-08T05:08:59;41.87;;;22.03;;
7316;SDS011;3699;51.462;6.696;2024-03-08T05:11:25;43.77;;;23.37;;
7316;SDS011;3699;51.462;6.696;2024-03-08T05:13:53;47.70;;;23.60;;
7316;SDS011;3699;51.462;6.696;2024-03-08T05:16:20;42.60;;;22.87;;
7316;SDS011;3699;51.462;6.696;2024-03-08T05:18:49;41.77;;;22.33;;
7316;SDS011;3699;51.462;6.696;2024-03-08T05:21:17;44.67;;;23.30;;
7316;SDS011;3699;51.462;6.696;2024-03-08T05:23:45;46.57;;;23.47;;
7316;SDS011;3699;51.462;6.696;2024-03-08T05:26:13;44.13;;;22.90;;
7316;SDS011;3699;51.462;6.696;2024-03-08T05:28:40;42.30;;;22.97;;
7316;SDS011;3699;51.462;6.696;2024-03-08T05:31:08;44.70;;;22.10;;
7316;SDS011;3699;51.462;6.696;2024-03-08T05:33:34;42.80;;;22.20;;
7316;SDS011;3699;51.462;6.696;2024-03-08T05:36:02;38.40;;;22.17;;
7316;SDS011;3699;51.462;6.696;2024-03-08T05:38:28;40.60;;;21.93;;
7316;SDS011;3699;51.462;6.696;2024-03-08T05:40:55;41.07;;;22.43;;
7316;SDS011;3699;51.462;6.696;2024-03-08T05:43:22;38.67;;;21.90;;
7316;SDS011;3699;51.462;6.696;2024-03-08T05:45:49;38.57;;;22.10;;
7316;SDS011;3699;51.462;6.696;2024-03-08T05:48:18;45.13;;;22.93;;
7316;SDS011;3699;51.462;6.696;2024-03-08T05:50:44;41.97;;;22.80;;
7316;SDS011;3699;51.462;6.696;2024-03-08T05:53:11;43.60;;;22.53;;
7316;SDS011;3699;51.462;6.696;2024-03-08T05:55:38;43.33;;;22.60;;
7316;SDS011;3699;51.462;6.696;2024-03-08T05:58:05;48.33;;;23.20;;
7316;SDS011;3699;51.462;6.696;2024-03-08T06:00:32;45.53;;;23.60;;
7316;SDS011;3699;51.462;6.696;2024-03-08T06:03:01;51.77;;;23.93;;
7316;SDS011;3699;51.462;6.696;2024-03-08T06:05:29;43.30;;;23.93;;
7316;SDS011;3699;51.462;6.696;2024-03-08T06:07:56;44.77;;;23.10;;
7316;SDS011;3699;51.462;6.696;2024-03-08T06:10:23;44.23;;;23.67;;
7316;SDS011;3699;51.462;6.696;2024-03-08T06:12:49;46.60;;;23.53;;
7316;SDS011;3699;51.462;6.696;2024-03-08T06:15:16;44.63;;;23.47;;
7316;SDS011;3699;51.462;6.696;2024-03-08T06:17:45;46.60;;;23.67;;
7316;SDS011;3699;51.462;6.696;2024-03-08T06:20:12;47.90;;;23.13;;
7316;SDS011;3699;51.462;6.696;2024-03-08T06:22:41;44.77;;;24.20;;
7316;SDS011;3699;51.462;6.696;2024-03-08T06:25:09;43.77;;;23.00;;
7316;SDS011;3699;51.462;6.696;2024-03-08T06:27:38;47.10;;;24.57;;
7316;SDS011;3699;51.462;6.696;2024-03-08T06:30:06;42.60;;;23.33;;
7316;SDS011;3699;51.462;6.696;2024-03-08T06:32:34;45.33;;;23.57;;
7316;SDS011;3699;51.462;6.696;2024-03-08T06:35:02;41.97;;;23.00;;
7316;SDS011;3699;51.462;6.696;2024-03-08T06:37:31;42.80;;;22.93;;
7316;SDS011;3699;51.462;6.696;2024-03-08T06:39:59;44.17;;;23.17;;
7316;SDS011;3699;51.462;6.696;2024-03-08T06:42:28;45.43;;;23.87;;
7316;SDS011;3699;51.462;6.696;2024-03-08T06:44:58;42.67;;;21.80;;
7316;SDS011;3699;51.462;6.696;2024-03-08T06:47:29;42.27;;;22.90;;
7316;SDS011;3699;51.462;6.696;2024-03-08T06:49:56;37.87;;;23.07;;
7316;SDS011;3699;51.462;6.696;2024-03-08T06:52:23;43.00;;;22.20;;
7316;SDS011;3699;51.462;6.696;2024-03-08T06:54:50;45.73;;;24.50;;
7316;SDS011;3699;51.462;6.696;2024-03-08T06:57:18;42.13;;;22.93;;
7316;SDS011;3699;51.462;6.696;2024-03-08T06:59:47;40.40;;;22.73;;
7316;SDS011;3699;51.462;6.696;2024-03-08T07:02:13;43.53;;;23.33;;
7316;SDS011;3699;51.462;6.696;2024-03-08T07:04:40;38.23;;;22.50;;
7316;SDS011;3699;51.462;6.696;2024-03-08T07:07:07;37.37;;;22.07;;
7316;SDS011;3699;51.462;6.696;2024-03-08T07:09:34;37.57;;;21.40;;
7316;SDS011;3699;51.462;6.696;2024-03-08T07:12:01;44.80;;;22.83;;
7316;SDS011;3699;51.462;6.696;2024-03-08T07:14:30;37.67;;;22.27;;
7316;SDS011;3699;51.462;6.696;2024-03-08T07:16:57;37.20;;;22.43;;
7316;SDS011;3699;51.462;6.696;2024-03-08T07:19:23;36.93;;;21.53;;
7316;SDS011;3699;51.462;6.696;2024-03-08T07:21:50;39.13;;;21.93;;
7316;SDS011;3699;51.462;6.696;2024-03-08T07:24:17;39.40;;;22.20;;
7316;SDS011;3699;51.462;6.696;2024-03-08T07:27:04;35.67;;;21.67;;
7316;SDS011;3699;51.462;6.696;2024-03-08T07:29:32;36.80;;;21.53;;
7316;SDS011;3699;51.462;6.696;2024-03-08T07:32:00;43.17;;;22.23;;
7316;SDS011;3699;51.462;6.696;2024-03-08T07:34:37;42.10;;;21.17;;
7316;SDS011;3699;51.462;6.696;2024-03-08T07:37:05;37.07;;;21.47;;
7316;SDS011;3699;51.462;6.696;2024-03-08T07:39:36;38.53;;;22.03;;
7316;SDS011;3699;51.462;6.696;2024-03-08T07:42:03;37.50;;;22.13;;
7316;SDS011;3699;51.462;6.696;2024-03-08T07:44:30;34.87;;;20.97;;
7316;SDS011;3699;51.462;6.696;2024-03-08T07:46:58;32.93;;;21.87;;
7316;SDS011;3699;51.462;6.696;2024-03-08T07:49:25;39.27;;;22.73;;
7316;SDS011;3699;51.462;6.696;2024-03-08T07:51:52;44.23;;;25.17;;
7316;SDS011;3699;51.462;6.696;2024-03-08T07:54:19;47.07;;;24.20;;
7316;SDS011;3699;51.462;6.696;2024-03-08T07:56:45;33.90;;;21.63;;
7316;SDS011;3699;51.462;6.696;2024-03-08T07:59:12;41.80;;;22.20;;
7316;SDS011;3699;51.462;6.696;2024-03-08T08:01:39;40.27;;;21.53;;
7316;SDS011;3699;51.462;6.696;2024-03-08T08:04:08;42.07;;;22.30;;
7316;SDS011;3699;51.462;6.696;2024-03-08T08:06:37;35.03;;;21.73;;
7316;SDS011;3699;51.462;6.696;2024-03-08T08:09:06;41.63;;;21.93;;
7316;SDS011;3699;51.462;6.696;2024-03-08T08:11:35;37.47;;;21.53;;
7316;SDS011;3699;51.462;6.696;2024-03-08T08:14:01;40.70;;;22.53;;
7316;SDS011;3699;51.462;6.696;2024-03-08T08:16:28;41.63;;;22.87;;
7316;SDS011;3699;51.462;6.696;2024-03-08T08:18:55;40.40;;;22.20;;
7316;SDS011;3699;51.462;6.696;2024-03-08T08:21:23;42.73;;;23.90;;
7316;SDS011;3699;51.462;6.696;2024-03-08T08:23:51;40.43;;;23.70;;
7316;SDS011;3699;51.462;6.696;2024-03-08T08:26:17;39.13;;;21.57;;
7316;SDS011;3699;51.462;6.696;2024-03-08T08:28:46;40.10;;;21.80;;
7316;SDS011;3699;51.462;6.696;2024-03-08T08:31:13;48.40;;;24.63;;
7316;SDS011;3699;51.462;6.696;2024-03-08T08:33:39;39.50;;;22.30;;
7316;SDS011;3699;51.462;6.696;2024-03-08T08:36:06;47.10;;;22.03;;
7316;SDS011;3699;51.462;6.696;2024-03-08T08:38:36;41.20;;;22.20;;
7316;SDS011;3699;51.462;6.696;2024-03-08T08:41:03;42.43;;;23.23;;
7316;SDS011;3699;51.462;6.696;2024-03-08T08:43:31;46.57;;;23.03;;
7316;SDS011;3699;51.462;6.696;2024-03-08T08:45:58;44.07;;;22.50;;
7316;SDS011;3699;51.462;6.696;2024-03-08T08:48:26;43.37;;;22.73;;
7316;SDS011;3699;51.462;6.696;2024-03-08T08:50:54;36.53;;;21.67;;
7316;SDS011;3699;51.462;6.696;2024-03-08T08:53:21;35.73;;;20.17;;
7316;SDS011;3699;51.462;6.696;2024-03-08T08:55:49;37.63;;;21.33;;
7316;SDS011;3699;51.462;6.696;2024-03-08T08:58:18;35.77;;;20.97;;
7316;SDS011;3699;51.462;6.696;2024-03-08T09:00:44;39.97;;;21.90;;
7316;SDS011;3699;51.462;6.696;2024-03-08T09:03:11;35.63;;;20.30;;
7316;SDS011;3699;51.462;6.696;2024-03-08T09:05:38;30.53;;;19.37;;
7316;SDS011;3699;51.462;6.696;2024-03-08T09:08:07;30.90;;;19.27;;
7316;SDS011;3699;51.462;6.696;2024-03-08T09:10:35;35.60;;;20.40;;
7316;SDS011;3699;51.462;6.696;2024-03-08T09:13:05;31.27;;;18.40;;
7316;SDS011;3699;51.462;6.696;2024-03-08T09:15:35;32.10;;;18.90;;
7316;SDS011;3699;51.462;6.696;2024-03-08T09:18:04;33.57;;;20.03;;
7316;SDS011;3699;51.462;6.696;2024-03-08T09:20:31;34.07;;;20.37;;
7316;SDS011;3699;51.462;6.696;2024-03-08T09:23:00;38.23;;;19.77;;
7316;SDS011;3699;51.462;6.696;2024-03-08T09:25:26;32.47;;;19.67;;
7316;SDS011;3699;51.462;6.696;2024-03-08T09:27:53;30.83;;;18.67;;
7316;SDS011;3699;51.462;6.696;2024-03-08T09:30:21;31.00;;;18.93;;
7316;SDS011;3699;51.462;6.696;2024-03-08T09:32:49;30.97;;;19.90;;
7316;SDS011;3699;51.462;6.696;2024-03-08T09:35:16;32.43;;;18.87;;
7316;SDS011;3699;51.462;6.696;2024-03-08T09:37:43;28.20;;;18.53;;
7316;SDS011;3699;51.462;6.696;2024-03-08T09:40:12;33.60;;;18.97;;
7316;SDS011;3699;51.462;6.696;2024-03-08T09:42:40;29.93;;;18.63;;
7316;SDS011;3699;51.462;6.696;2024-03-08T09:45:08;33.50;;;19.30;;
7316;SDS011;3699;51.462;6.696;2024-03-08T09:47:38;34.37;;;19.53;;
7316;SDS011;3699;51.462;6.696;2024-03-08T09:50:07;33.20;;;19.80;;
7316;SDS011;3699;51.462;6.696;2024-03-08T09:52:34;30.43;;;18.70;;
7316;SDS011;3699;51.462;6.696;2024-03-08T09:55:02;33.07;;;18.20;;
7316;SDS011;3699;51.462;6.696;2024-03-08T09:57:31;31.70;;;19.50;;
7316;SDS011;3699;51.462;6.696;2024-03-08T09:59:58;31.03;;;19.10;;
7316;SDS011;3699;51.462;6.696;2024-03-08T10:02:24;31.73;;;18.90;;
7316;SDS011;3699;51.462;6.696;2024-03-08T10:04:52;32.47;;;18.40;;
7316;SDS011;3699;51.462;6.696;2024-03-08T10:07:19;30.20;;;19.43;;
7316;SDS011;3699;51.462;6.696;2024-03-08T10:09:46;30.00;;;18.33;;
7316;SDS011;3699;51.462;6.696;2024-03-08T10:12:15;31.23;;;19.53;;
7316;SDS011;3699;51.462;6.696;2024-03-08T10:14:42;34.37;;;19.97;;
7316;SDS011;3699;51.462;6.696;2024-03-08T10:17:09;32.47;;;19.17;;
7316;SDS011;3699;51.462;6.696;2024-03-08T10:19:36;31.63;;;19.23;;
7316;SDS011;3699;51.462;6.696;2024-03-08T10:22:05;28.27;;;16.37;;
7316;SDS011;3699;51.462;6.696;2024-03-08T10:24:32;29.73;;;18.63;;
7316;SDS011;3699;51.462;6.696;2024-03-08T10:26:59;35.97;;;20.13;;
7316;SDS011;3699;51.462;6.696;2024-03-08T10:29:29;32.20;;;18.87;;
7316;SDS011;3699;51.462;6.696;2024-03-08T10:31:56;31.23;;;19.10;;
7316;SDS011;3699;51.462;6.696;2024-03-08T10:34:23;33.40;;;19.23;;
7316;SDS011;3699;51.462;6.696;2024-03-08T10:36:50;30.13;;;18.73;;
7316;SDS011;3699;51.462;6.696;2024-03-08T10:39:22;27.00;;;17.83;;
7316;SDS011;3699;51.462;6.696;2024-03-08T10:41:52;39.57;;;19.57;;
7316;SDS011;3699;51.462;6.696;2024-03-08T10:44:38;32.73;;;18.33;;
7316;SDS011;3699;51.462;6.696;2024-03-08T10:47:11;32.27;;;18.10;;
7316;SDS011;3699;51.462;6.696;2024-03-08T10:49:47;33.37;;;20.13;;
7316;SDS011;3699;51.462;6.696;2024-03-08T10:52:20;27.03;;;17.97;;
7316;SDS011;3699;51.462;6.696;2024-03-08T10:54:48;28.83;;;18.73;;
7316;SDS011;3699;51.462;6.696;2024-03-08T10:57:17;32.13;;;19.03;;
7316;SDS011;3699;51.462;6.696;2024-03-08T10:59:45;27.03;;;17.20;;
7316;SDS011;3699;51.462;6.696;2024-03-08T11:02:16;28.77;;;17.93;;
7316;SDS011;3699;51.462;6.696;2024-03-08T11:04:47;28.90;;;16.73;;
7316;SDS011;3699;51.462;6.696;2024-03-08T11:07:14;26.60;;;16.60;;
7316;SDS011;3699;51.462;6.696;2024-03-08T11:09:44;30.10;;;18.33;;
7316;SDS011;3699;51.462;6.696;2024-03-08T11:12:21;28.47;;;17.53;;
7316;SDS011;3699;51.462;6.696;2024-03-08T11:14:54;27.10;;;16.97;;
7316;SDS011;3699;51.462;6.696;2024-03-08T11:17:25;26.40;;;17.50;;
7316;SDS011;3699;51.462;6.696;2024-03-08T11:20:08;33.17;;;17.30;;
7316;SDS011;3699;51.462;6.696;2024-03-08T11:22:40;28.03;;;17.20;;
7316;SDS011;3699;51.462;6.696;2024-03-08T11:25:13;27.80;;;16.07;;
7316;SDS011;3699;51.462;6.696;2024-03-08T11:28:07;25.80;;;17.10;;
7316;SDS011;3699;51.462;6.696;2024-03-08T11:30:36;24.70;;;15.83;;
7316;SDS011;3699;51.462;6.696;2024-03-08T11:33:03;26.30;;;15.57;;
7316;SDS011;3699;51.462;6.696;2024-03-08T11:35:30;31.73;;;17.93;;
7316;SDS011;3699;51.462;6.696;2024-03-08T11:37:57;33.37;;;17.70;;
7316;SDS011;3699;51.462;6.696;2024-03-08T11:40:25;28.20;;;17.20;;
7316;SDS011;3699;51.462;6.696;2024-03-08T11:42:52;29.67;;;18.90;;
7316;SDS011;3699;51.462;6.696;2024-03-08T11:45:21;33.87;;;18.03;;
7316;SDS011;3699;51.462;6.696;2024-03-08T11:47:48;30.30;;;18.57;;
7316;SDS011;3699;51.462;6.696;2024-03-08T11:50:15;32.77;;;19.53;;
7316;SDS011;3699;51.462;6.696;2024-03-08T11:52:43;32.87;;;19.13;;
7316;SDS011;3699;51.462;6.696;2024-03-08T11:55:11;28.70;;;19.00;;
7316;SDS011;3699;51.462;6.696;2024-03-08T11:57:38;31.80;;;18.70;;
7316;SDS011;3699;51.462;6.696;2024-03-08T12:00:14;33.87;;;20.43;;
7316;SDS011;3699;51.462;6.696;2024-03-08T12:03:01;32.20;;;19.40;;
7316;SDS011;3699;51.462;6.696;2024-03-08T12:05:28;27.90;;;18.73;;
7316;SDS011;3699;51.462;6.696;2024-03-08T12:07:56;33.73;;;19.43;;
7316;SDS011;3699;51.462;6.696;2024-03-08T12:10:23;31.43;;;18.93;;
7316;SDS011;3699;51.462;6.696;2024-03-08T12:12:51;32.60;;;20.13;;
7316;SDS011;3699;51.462;6.696;2024-03-08T12:15:19;30.67;;;19.70;;
7316;SDS011;3699;51.462;6.696;2024-03-08T12:17:47;30.67;;;18.23;;
7316;SDS011;3699;51.462;6.696;2024-03-08T12:20:17;33.33;;;18.93;;
7316;SDS011;3699;51.462;6.696;2024-03-08T12:22:46;29.90;;;18.73;;
7316;SDS011;3699;51.462;6.696;2024-03-08T12:25:14;29.97;;;17.57;;
7316;SDS011;3699;51.462;6.696;2024-03-08T12:27:42;28.10;;;18.43;;
7316;SDS011;3699;51.462;6.696;2024-03-08T12:30:17;29.43;;;17.97;;
7316;SDS011;3699;51.462;6.696;2024-03-08T12:32:47;27.17;;;17.93;;
7316;SDS011;3699;51.462;6.696;2024-03-08T12:35:25;29.47;;;19.67;;
7316;SDS011;3699;51.462;6.696;2024-03-08T12:37:54;33.77;;;20.00;;
7316;SDS011;3699;51.462;6.696;2024-03-08T12:40:25;31.63;;;18.53;;
7316;SDS011;3699;51.462;6.696;2024-03-08T12:42:53;28.17;;;18.70;;
7316;SDS011;3699;51.462;6.696;2024-03-08T12:45:20;28.97;;;19.43;;
7316;SDS011;3699;51.462;6.696;2024-03-08T12:47:49;32.50;;;19.63;;
7316;SDS011;3699;51.462;6.696;2024-03-08T12:50:16;30.13;;;17.67;;
7316;SDS011;3699;51.462;6.696;2024-03-08T12:52:44;25.97;;;17.17;;
7316;SDS011;3699;51.462;6.696;2024-03-08T12:55:11;30.20;;;17.43;;
7316;SDS011;3699;51.462;6.696;2024-03-08T12:57:39;35.40;;;18.87;;
7316;SDS011;3699;51.462;6.696;2024-03-08T13:00:06;27.13;;;17.30;;
7316;SDS011;3699;51.462;6.696;2024-03-08T13:02:38;26.77;;;16.70;;
7316;SDS011;3699;51.462;6.696;2024-03-08T13:05:05;21.30;;;15.77;;
7316;SDS011;3699;51.462;6.696;2024-03-08T13:07:34;24.93;;;16.83;;
7316;SDS011;3699;51.462;6.696;2024-03-08T13:10:04;23.03;;;16.53;;
7316;SDS011;3699;51.462;6.696;2024-03-08T13:12:32;26.07;;;16.27;;
7316;SDS011;3699;51.462;6.696;2024-03-08T13:15:00;27.00;;;16.10;;
7316;SDS011;3699;51.462;6.696;2024-03-08T13:17:28;26.33;;;18.00;;
7316;SDS011;3699;51.462;6.696;2024-03-08T13:19:55;25.77;;;17.37;;
7316;SDS011;3699;51.462;6.696;2024-03-08T13:22:24;24.60;;;16.40;;
7316;SDS011;3699;51.462;6.696;2024-03-08T13:24:50;26.07;;;14.93;;
7316;SDS011;3699;51.462;6.696;2024-03-08T13:27:19;26.13;;;16.13;;
7316;SDS011;3699;51.462;6.696;2024-03-08T13:29:47;25.40;;;15.87;;
7316;SDS011;3699;51.462;6.696;2024-03-08T13:32:14;24.83;;;14.43;;
7316;SDS011;3699;51.462;6.696;2024-03-08T13:34:41;21.47;;;13.90;;
7316;SDS011;3699;51.462;6.696;2024-03-08T13:37:09;24.33;;;15.00;;
7316;SDS011;3699;51.462;6.696;2024-03-08T13:39:37;25.03;;;14.33;;
7316;SDS011;3699;51.462;6.696;2024-03-08T13:42:08;20.60;;;12.87;;
7316;SDS011;3699;51.462;6.696;2024-03-08T13:44:39;19.70;;;12.33;;
7316;SDS011;3699;51.462;6.696;2024-03-08T13:47:09;17.53;;;11.13;;
7316;SDS011;3699;51.462;6.696;2024-03-08T13:49:36;19.77;;;11.13;;
7316;SDS011;3699;51.462;6.696;2024-03-08T13:52:03;15.37;;;11.23;;
7316;SDS011;3699;51.462;6.696;2024-03-08T13:54:33;14.27;;;9.43;;
7316;SDS011;3699;51.462;6.696;2024-03-08T13:57:00;12.13;;;9.03;;
7316;SDS011;3699;51.462;6.696;2024-03-08T13:59:28;12.63;;;8.73;;
7316;SDS011;3699;51.462;6.696;2024-03-08T14:01:56;12.17;;;9.17;;
7316;SDS011;3699;51.462;6.696;2024-03-08T14:04:24;13.67;;;8.50;;
7316;SDS011;3699;51.462;6.696;2024-03-08T14:06:52;12.00;;;7.97;;
7316;SDS011;3699;51.462;6.696;2024-03-08T14:09:24;12.60;;;8.17;;
7316;SDS011;3699;51.462;6.696;2024-03-08T14:11:51;14.53;;;8.30;;
7316;SDS011;3699;51.462;6.696;2024-03-08T14:14:19;11.33;;;8.10;;
7316;SDS011;3699;51.462;6.696;2024-03-08T14:16:48;11.40;;;8.70;;
7316;SDS011;3699;51.462;6.696;2024-03-08T14:19:18;11.43;;;7.77;;
7316;SDS011;3699;51.462;6.696;2024-03-08T14:21:45;10.67;;;7.83;;
7316;SDS011;3699;51.462;6.696;2024-03-08T14:24:13;10.03;;;7.73;;
7316;SDS011;3699;51.462;6.696;2024-03-08T14:26:40;11.67;;;8.00;;
7316;SDS011;3699;51.462;6.696;2024-03-08T14:29:07;12.83;;;8.47;;
7316;SDS011;3699;51.462;6.696;2024-03-08T14:31:35;11.60;;;8.47;;
7316;SDS011;3699;51.462;6.696;2024-03-08T14:34:01;10.97;;;7.80;;
7316;SDS011;3699;51.462;6.696;2024-03-08T14:36:29;9.43;;;7.07;;
7316;SDS011;3699;51.462;6.696;2024-03-08T14:38:56;9.63;;;6.90;;
7316;SDS011;3699;51.462;6.696;2024-03-08T14:41:23;12.03;;;8.23;;
7316;SDS011;3699;51.462;6.696;2024-03-08T14:43:51;10.83;;;7.37;;
7316;SDS011;3699;51.462;6.696;2024-03-08T14:46:19;12.67;;;8.37;;
7316;SDS011;3699;51.462;6.696;2024-03-08T14:48:46;13.33;;;7.83;;
7316;SDS011;3699;51.462;6.696;2024-03-08T14:51:13;14.90;;;9.17;;
7316;SDS011;3699;51.462;6.696;2024-03-08T14:53:41;12.90;;;9.07;;